createdAt,value
2018-09-06T00:02:28.029Z,19.58
2018-09-06T00:04:56.578Z,19.57
2018-09-06T00:07:25.067Z,19.60
2018-09-06T00:09:53.534Z,19.62
2018-09-06T00:12:22.012Z,19.64
2018-09-06T00:14:50.479Z,19.65
2018-09-06T00:17:18.984Z,19.62
2018-09-06T00:19:47.448Z,19.66
2018-09-06T00:22:17.317Z,19.66
2018-09-06T00:24:45.870Z,19.60
2018-09-06T00:27:14.342Z,19.57
2018-09-06T00:29:42.829Z,19.50
2018-09-06T00:32:11.311Z,19.40
2018-09-06T00:34:39.761Z,19.39
2018-09-06T00:37:08.278Z,19.37
2018-09-06T00:39:36.722Z,19.39
2018-09-06T00:42:05.248Z,19.37
2018-09-06T00:44:33.684Z,19.33
2018-09-06T00:47:02.106Z,19.36
2018-09-06T00:49:30.550Z,19.35
2018-09-06T00:51:59.065Z,19.27
2018-09-06T00:54:27.504Z,19.29
2018-09-06T00:56:56.025Z,19.27
2018-09-06T00:59:25.766Z,19.27
2018-09-06T01:01:55.134Z,19.27
2018-09-06T01:04:23.581Z,19.25
2018-09-06T01:06:52.098Z,19.24
2018-09-06T01:09:20.773Z,19.28
2018-09-06T01:11:49.241Z,19.35
2018-09-06T01:14:17.870Z,19.37
2018-09-06T01:16:46.401Z,19.38
2018-09-06T01:19:14.986Z,19.40
2018-09-06T01:21:43.484Z,19.34
2018-09-06T01:24:11.953Z,19.39
2018-09-06T01:26:40.466Z,19.38
2018-09-06T01:29:08.893Z,19.36
2018-09-06T01:31:37.356Z,19.33
2018-09-06T01:34:05.985Z,19.34
2018-09-06T01:36:39.617Z,19.28
2018-09-06T01:39:09.937Z,19.29
2018-09-06T01:41:38.347Z,19.29
2018-09-06T01:44:06.978Z,19.28
2018-09-06T01:46:36.127Z,19.30
2018-09-06T01:49:05.008Z,19.32
2018-09-06T01:51:33.850Z,19.25
2018-09-06T01:54:02.453Z,19.14
2018-09-06T01:56:31.455Z,19.13
2018-09-06T01:58:59.937Z,19.18
2018-09-06T02:01:28.781Z,19.11
2018-09-06T02:03:57.883Z,19.06
2018-09-06T02:06:26.879Z,19.06
2018-09-06T02:08:55.388Z,19.06
2018-09-06T02:11:24.473Z,19.08
2018-09-06T02:13:52.967Z,19.05
2018-09-06T02:16:21.417Z,19.14
2018-09-06T02:18:49.918Z,19.13
2018-09-06T02:21:18.457Z,19.09
2018-09-06T02:23:46.912Z,19.11
2018-09-06T02:26:15.362Z,19.13
2018-09-06T02:28:43.894Z,19.12
2018-09-06T02:31:12.321Z,19.19
2018-09-06T02:33:40.810Z,19.12
2018-09-06T02:36:09.260Z,19.21
2018-09-06T02:38:37.873Z,19.39
2018-09-06T02:41:06.305Z,19.31
2018-09-06T02:43:34.773Z,19.32
2018-09-06T02:46:03.243Z,19.10
2018-09-06T02:48:37.021Z,19.11
2018-09-06T02:51:10.786Z,19.12
2018-09-06T02:53:39.245Z,19.06
2018-09-06T02:56:07.726Z,19.08
2018-09-06T02:58:36.394Z,19.01
2018-09-06T03:01:04.854Z,19.02
2018-09-06T03:03:33.356Z,19.02
2018-09-06T03:06:01.849Z,19.08
2018-09-06T03:08:30.317Z,19.05
2018-09-06T03:11:02.257Z,19.01
2018-09-06T03:13:30.673Z,19.03
2018-09-06T03:15:59.306Z,18.94
2018-09-06T03:18:28.808Z,18.93
2018-09-06T03:20:57.241Z,18.97
2018-09-06T03:23:25.752Z,18.85
2018-09-06T03:25:54.258Z,18.71
2018-09-06T03:28:22.775Z,18.68
2018-09-06T03:30:51.236Z,18.66
2018-09-06T03:33:19.679Z,18.67
2018-09-06T03:35:48.230Z,18.74
2018-09-06T03:38:16.621Z,18.72
2018-09-06T03:40:45.074Z,18.62
2018-09-06T03:43:13.604Z,18.54
2018-09-06T03:45:42.038Z,18.50
2018-09-06T03:48:10.470Z,18.52
2018-09-06T03:50:38.921Z,18.53
2018-09-06T03:53:07.387Z,18.53
2018-09-06T03:55:35.900Z,18.48
2018-09-06T03:58:05.329Z,18.45
2018-09-06T04:00:33.824Z,18.39
2018-09-06T04:03:02.245Z,18.39
2018-09-06T04:05:30.695Z,18.37
2018-09-06T04:07:59.145Z,18.69
2018-09-06T04:10:27.938Z,18.75
2018-09-06T04:12:56.377Z,18.74
2018-09-06T04:15:24.824Z,18.80
2018-09-06T04:17:53.316Z,18.75
2018-09-06T04:20:21.934Z,18.63
2018-09-06T04:22:51.908Z,18.54
2018-09-06T04:25:20.514Z,18.47
2018-09-06T04:27:49.299Z,18.43
2018-09-06T04:30:17.754Z,18.49
2018-09-06T04:32:46.223Z,18.51
2018-09-06T04:35:15.015Z,18.55
2018-09-06T04:37:43.710Z,18.57
2018-09-06T04:40:12.412Z,18.52
2018-09-06T04:42:41.059Z,18.38
2018-09-06T04:45:09.597Z,18.47
2018-09-06T04:47:38.077Z,18.48
2018-09-06T04:50:06.613Z,18.51
2018-09-06T04:52:35.058Z,18.47
2018-09-06T04:55:03.637Z,18.38
2018-09-06T04:57:32.745Z,18.35
2018-09-06T05:00:01.220Z,18.29
2018-09-06T05:02:29.661Z,18.36
2018-09-06T05:04:58.123Z,18.34
2018-09-06T05:07:26.553Z,18.35
2018-09-06T05:10:19.003Z,18.34
2018-09-06T05:12:47.450Z,18.35
2018-09-06T05:15:15.961Z,18.37
2018-09-06T05:17:44.427Z,18.37
2018-09-06T05:20:12.878Z,18.39
2018-09-06T05:22:41.341Z,18.36
2018-09-06T05:25:09.857Z,18.41
2018-09-06T05:27:38.306Z,18.46
2018-09-06T05:30:07.004Z,18.42
2018-09-06T05:32:35.465Z,18.40
2018-09-06T05:35:03.996Z,18.39
2018-09-06T05:37:32.461Z,18.45
2018-09-06T05:40:00.943Z,18.51
2018-09-06T05:42:29.376Z,18.54
2018-09-06T05:44:57.848Z,18.67
2018-09-06T05:47:26.397Z,18.69
2018-09-06T05:49:54.869Z,18.62
2018-09-06T05:52:23.338Z,18.55
2018-09-06T05:54:51.771Z,18.64
2018-09-06T05:57:20.255Z,18.65
2018-09-06T05:59:48.738Z,18.66
2018-09-06T06:02:17.233Z,18.69
2018-09-06T06:04:45.702Z,18.75
2018-09-06T06:07:14.149Z,18.71
2018-09-06T06:09:42.581Z,18.71
2018-09-06T06:12:11.120Z,18.70
2018-09-06T06:14:39.526Z,18.70
2018-09-06T06:17:08.066Z,18.75
2018-09-06T06:19:36.525Z,18.72
2018-09-06T06:22:05.017Z,18.64
2018-09-06T06:24:33.428Z,18.62
2018-09-06T06:27:01.881Z,18.74
2018-09-06T06:29:30.367Z,18.84
2018-09-06T06:31:58.919Z,18.68
2018-09-06T06:34:27.281Z,18.81
2018-09-06T06:36:55.702Z,18.92
2018-09-06T06:39:24.153Z,18.83
2018-09-06T06:41:52.570Z,18.93
2018-09-06T06:44:20.961Z,19.04
2018-09-06T06:46:49.409Z,19.01
2018-09-06T06:49:17.854Z,19.03
2018-09-06T06:51:46.297Z,19.02
2018-09-06T06:54:14.755Z,18.99
2018-09-06T06:56:43.243Z,19.05
2018-09-06T06:59:11.641Z,19.11
2018-09-06T07:01:40.113Z,19.13
2018-09-06T07:04:08.547Z,19.17
2018-09-06T07:06:36.973Z,19.35
2018-09-06T07:09:08.408Z,19.43
2018-09-06T07:11:36.838Z,19.44
2018-09-06T07:14:05.353Z,19.47
2018-09-06T07:16:33.817Z,19.45
2018-09-06T07:19:02.247Z,19.45
2018-09-06T07:21:31.005Z,19.39
2018-09-06T07:23:59.585Z,19.39
2018-09-06T07:26:28.097Z,19.42
2018-09-06T07:28:56.898Z,19.38
2018-09-06T07:31:25.360Z,19.42
2018-09-06T07:33:53.977Z,19.36
2018-09-06T07:36:22.814Z,19.35
2018-09-06T07:38:51.296Z,19.50
2018-09-06T07:41:19.813Z,19.44
2018-09-06T07:43:48.297Z,19.45
2018-09-06T07:46:16.713Z,19.50
2018-09-06T07:48:45.176Z,19.72
2018-09-06T07:51:13.652Z,19.70
2018-09-06T07:53:42.127Z,19.72
2018-09-06T07:56:10.567Z,19.78
2018-09-06T07:58:39.039Z,19.63
2018-09-06T08:01:07.672Z,19.75
2018-09-06T08:03:36.189Z,19.90
2018-09-06T08:06:04.653Z,19.96
2018-09-06T08:08:33.201Z,20.20
2018-09-06T08:11:01.661Z,20.43
2018-09-06T08:13:30.179Z,20.35
2018-09-06T08:15:58.621Z,20.28
2018-09-06T08:18:27.140Z,20.28
2018-09-06T08:20:55.733Z,20.38
2018-09-06T08:23:24.239Z,20.30
2018-09-06T08:26:05.118Z,20.75
2018-09-06T08:28:33.634Z,21.01
2018-09-06T08:31:02.328Z,21.06
2018-09-06T08:33:30.695Z,20.78
2018-09-06T08:35:59.156Z,20.83
2018-09-06T08:38:27.642Z,20.61
2018-09-06T08:40:56.149Z,20.72
2018-09-06T08:43:24.889Z,20.84
2018-09-06T08:45:53.400Z,20.58
2018-09-06T08:48:21.882Z,20.67
2018-09-06T08:50:50.757Z,20.74
2018-09-06T08:53:19.477Z,20.74
2018-09-06T08:55:48.004Z,20.79
2018-09-06T08:58:16.536Z,20.77
2018-09-06T09:00:50.241Z,20.87
2018-09-06T09:03:18.758Z,20.98
2018-09-06T09:05:47.214Z,20.68
2018-09-06T09:08:15.725Z,20.94
2018-09-06T09:10:44.189Z,20.87
2018-09-06T09:13:12.734Z,20.77
2018-09-06T09:15:41.198Z,20.15
2018-09-06T09:18:09.671Z,20.01
2018-09-06T09:20:38.312Z,20.03
2018-09-06T09:23:06.793Z,20.09
2018-09-06T09:25:35.255Z,20.10
2018-09-06T09:28:09.115Z,20.13
2018-09-06T09:30:37.593Z,20.19
2018-09-06T09:33:06.237Z,20.24
2018-09-06T09:35:34.858Z,20.38
2018-09-06T09:38:03.329Z,20.58
2018-09-06T09:40:31.809Z,20.64
2018-09-06T09:43:00.353Z,20.83
2018-09-06T09:45:28.843Z,20.74
2018-09-06T09:47:58.094Z,20.54
2018-09-06T09:52:54.177Z,20.30
2018-09-06T09:55:22.640Z,20.06
2018-09-06T09:57:51.108Z,19.92
2018-09-06T10:00:23.737Z,19.72
2018-09-06T10:02:57.513Z,19.70
2018-09-06T10:05:31.278Z,19.71
2018-09-06T10:08:01.122Z,19.82
2018-09-06T10:10:29.669Z,19.97
2018-09-06T10:12:58.322Z,20.42
2018-09-06T10:15:26.754Z,20.89
2018-09-06T10:17:55.215Z,21.40
2018-09-06T10:20:23.653Z,21.86
2018-09-06T10:22:52.122Z,22.04
2018-09-06T10:25:20.581Z,21.96
2018-09-06T10:27:49.085Z,21.94
2018-09-06T10:30:17.570Z,22.00
2018-09-06T10:32:46.066Z,21.66
2018-09-06T10:35:14.578Z,21.79
2018-09-06T10:37:43.022Z,21.64
2018-09-06T10:40:11.538Z,21.52
2018-09-06T10:42:40.022Z,21.43
2018-09-06T10:45:08.518Z,21.45
2018-09-06T10:47:36.929Z,21.41
2018-09-06T10:50:05.557Z,21.43
2018-09-06T10:52:34.133Z,21.63
2018-09-06T10:55:03.503Z,21.68
2018-09-06T10:57:31.982Z,21.70
2018-09-06T11:00:00.795Z,21.81
2018-09-06T11:04:57.216Z,22.19
2018-09-06T11:07:25.762Z,22.22
2018-09-06T11:09:54.233Z,22.29
2018-09-06T11:12:22.663Z,22.75
2018-09-06T11:14:51.115Z,22.98
2018-09-06T11:17:19.521Z,22.78
2018-09-06T11:19:47.987Z,23.35
2018-09-06T11:22:16.727Z,23.15
2018-09-06T11:24:44.899Z,23.43
2018-09-06T11:27:13.335Z,23.46
2018-09-06T11:29:41.790Z,23.29
2018-09-06T11:32:10.280Z,22.39
2018-09-06T11:34:38.792Z,21.86
2018-09-06T11:37:07.339Z,21.16
2018-09-06T11:39:35.845Z,20.86
2018-09-06T11:42:04.361Z,20.68
2018-09-06T11:44:32.922Z,20.89
2018-09-06T11:47:01.362Z,21.03
2018-09-06T11:49:29.872Z,21.18
2018-09-06T11:51:58.372Z,21.17
2018-09-06T11:54:26.860Z,21.07
2018-09-06T11:56:55.375Z,21.07
2018-09-06T11:59:23.890Z,21.31
2018-09-06T12:01:52.858Z,21.37
2018-09-06T12:04:21.389Z,21.22
2018-09-06T12:06:49.862Z,21.12
2018-09-06T12:09:18.685Z,21.12
2018-09-06T12:11:47.216Z,21.19
2018-09-06T12:14:15.698Z,21.27
2018-09-06T12:16:44.173Z,21.00
2018-09-06T12:19:12.724Z,20.84
2018-09-06T12:21:41.206Z,20.54
2018-09-06T12:24:09.842Z,20.54
2018-09-06T12:26:38.390Z,20.55
2018-09-06T12:29:06.860Z,20.40
2018-09-06T12:31:35.298Z,20.23
2018-09-06T12:34:03.777Z,20.16
2018-09-06T12:36:32.274Z,20.10
2018-09-06T12:39:00.930Z,20.09
2018-09-06T12:41:29.428Z,20.13
2018-09-06T12:43:58.005Z,20.18
2018-09-06T12:46:26.589Z,20.24
2018-09-06T12:48:55.029Z,20.23
2018-09-06T12:51:23.464Z,20.20
2018-09-06T12:53:51.957Z,20.14
2018-09-06T12:56:20.430Z,20.20
2018-09-06T12:58:48.869Z,20.35
2018-09-06T13:01:17.373Z,20.44
2018-09-06T13:03:45.846Z,20.66
2018-09-06T13:06:14.279Z,20.89
2018-09-06T13:08:42.699Z,21.06
2018-09-06T13:11:11.267Z,21.26
2018-09-06T13:13:39.771Z,21.33
2018-09-06T13:16:08.300Z,21.64
2018-09-06T13:18:37.019Z,21.86
2018-09-06T13:21:05.678Z,21.80
2018-09-06T13:23:34.125Z,21.78
2018-09-06T13:26:02.572Z,21.79
2018-09-06T13:28:31.637Z,22.03
2018-09-06T13:31:00.098Z,22.21
2018-09-06T13:33:28.521Z,22.26
2018-09-06T13:35:57.049Z,22.34
2018-09-06T13:38:25.689Z,22.34
2018-09-06T13:40:54.141Z,22.48
2018-09-06T13:43:22.646Z,22.85
2018-09-06T13:45:51.129Z,23.16
2018-09-06T13:48:19.587Z,23.33
2018-09-06T13:50:48.163Z,22.67
2018-09-06T13:53:16.931Z,23.05
2018-09-06T13:55:45.428Z,23.13
2018-09-06T13:58:13.893Z,24.33
2018-09-06T14:00:42.418Z,24.36
2018-09-06T14:03:10.812Z,23.62
2018-09-06T14:05:39.258Z,22.79
2018-09-06T14:08:07.710Z,22.52
2018-09-06T14:10:36.134Z,22.43
2018-09-06T14:13:04.579Z,22.55
2018-09-06T14:15:33.035Z,23.05
2018-09-06T14:18:01.471Z,23.26
2018-09-06T14:20:30.021Z,23.16
2018-09-06T14:22:58.436Z,23.20
2018-09-06T14:25:26.838Z,22.82
2018-09-06T14:27:55.277Z,22.80
2018-09-06T14:30:24.028Z,22.51
2018-09-06T14:32:52.481Z,22.63
2018-09-06T14:35:20.937Z,22.55
2018-09-06T14:37:49.371Z,22.50
2018-09-06T14:40:17.795Z,22.13
2018-09-06T14:42:46.224Z,22.13
2018-09-06T14:45:15.350Z,22.16
2018-09-06T14:47:43.946Z,22.15
2018-09-06T14:50:12.348Z,22.28
2018-09-06T14:52:40.811Z,22.11
2018-09-06T14:55:09.274Z,22.18
2018-09-06T14:57:37.724Z,22.25
2018-09-06T15:00:06.326Z,22.51
2018-09-06T15:02:34.769Z,22.85
2018-09-06T15:05:03.214Z,23.00
2018-09-06T15:07:31.653Z,24.01
2018-09-06T15:10:00.113Z,24.15
2018-09-06T15:12:28.953Z,23.66
2018-09-06T15:14:57.368Z,23.38
2018-09-06T15:17:26.181Z,23.11
2018-09-06T15:19:54.679Z,22.92
2018-09-06T15:22:23.137Z,22.85
2018-09-06T15:24:51.637Z,23.04
2018-09-06T15:27:20.121Z,23.48
2018-09-06T15:29:48.558Z,23.60
2018-09-06T15:32:17.030Z,22.99
2018-09-06T15:34:45.434Z,22.67
2018-09-06T15:37:13.872Z,22.90
2018-09-06T15:39:42.317Z,23.02
2018-09-06T15:42:10.788Z,22.84
2018-09-06T15:44:39.264Z,22.82
2018-09-06T15:47:07.721Z,22.60
2018-09-06T15:49:36.317Z,22.48
2018-09-06T15:52:04.750Z,22.41
2018-09-06T15:54:33.719Z,22.19
2018-09-06T15:57:02.208Z,21.78
2018-09-06T15:59:30.650Z,21.65
2018-09-06T16:01:59.140Z,21.71
2018-09-06T16:04:27.734Z,21.61
2018-09-06T16:06:56.191Z,21.54
2018-09-06T16:09:24.743Z,22.02
2018-09-06T16:11:53.228Z,22.20
2018-09-06T16:14:21.678Z,21.80
2018-09-06T16:16:52.861Z,21.64
2018-09-06T16:19:21.464Z,21.68
2018-09-06T16:21:49.990Z,21.60
2018-09-06T16:24:18.694Z,21.52
2018-09-06T16:26:47.240Z,21.65
2018-09-06T16:29:15.811Z,21.72
2018-09-06T16:31:44.338Z,21.71
2018-09-06T16:34:12.819Z,21.67
2018-09-06T16:36:41.292Z,21.52
2018-09-06T16:39:10.838Z,21.40
2018-09-06T16:41:39.811Z,21.34
2018-09-06T16:44:08.544Z,21.21
2018-09-06T16:46:37.265Z,21.12
2018-09-06T16:49:06.094Z,21.18
2018-09-06T16:51:34.719Z,21.03
2018-09-06T16:54:03.186Z,20.74
2018-09-06T16:56:31.651Z,20.57
2018-09-06T16:59:00.129Z,20.34
2018-09-06T17:01:28.594Z,20.11
2018-09-06T17:03:57.307Z,20.17
2018-09-06T17:06:25.801Z,20.23
2018-09-06T17:08:54.272Z,20.31
2018-09-06T17:11:22.706Z,20.31
2018-09-06T17:13:51.181Z,20.17
2018-09-06T17:16:19.637Z,20.07
2018-09-06T17:18:48.138Z,20.00
2018-09-06T17:21:16.583Z,20.06
2018-09-06T17:23:46.081Z,19.97
2018-09-06T17:26:14.546Z,19.84
2018-09-06T17:28:43.022Z,19.82
2018-09-06T17:31:11.466Z,19.74
2018-09-06T17:33:39.932Z,19.67
2018-09-06T17:36:08.415Z,19.54
2018-09-06T17:38:37.038Z,19.38
2018-09-06T17:41:05.722Z,19.26
2018-09-06T17:43:34.357Z,19.22
2018-09-06T17:46:02.900Z,19.18
2018-09-06T17:48:31.419Z,19.14
2018-09-06T17:50:59.874Z,19.10
2018-09-06T17:53:28.448Z,19.08
2018-09-06T17:55:56.983Z,19.00
2018-09-06T17:58:25.525Z,19.02
2018-09-06T18:01:19.138Z,18.95
2018-09-06T18:03:47.602Z,18.91
2018-09-06T18:06:16.509Z,18.87
2018-09-06T18:08:45.413Z,18.81
2018-09-06T18:11:13.933Z,18.75
2018-09-06T18:13:42.701Z,18.72
2018-09-06T18:16:11.726Z,18.68
2018-09-06T18:18:40.229Z,18.62
2018-09-06T18:21:08.694Z,18.64
2018-09-06T18:23:37.228Z,18.60
2018-09-06T18:26:05.891Z,18.60
2018-09-06T18:28:34.613Z,18.58
2018-09-06T18:31:03.132Z,18.56
2018-09-06T18:33:31.970Z,18.54
2018-09-06T18:36:00.728Z,18.51
2018-09-06T18:38:29.606Z,18.51
2018-09-06T18:40:58.149Z,18.52
2018-09-06T18:43:26.634Z,18.49
2018-09-06T18:45:55.180Z,18.45
2018-09-06T18:48:23.669Z,18.49
2018-09-06T18:50:54.773Z,18.49
2018-09-06T18:53:34.818Z,18.45
2018-09-06T18:56:04.193Z,18.45
2018-09-06T18:58:34.575Z,18.41
2018-09-06T19:01:03.372Z,18.36
2018-09-06T19:03:32.737Z,18.31
2018-09-06T19:06:01.137Z,18.31
2018-09-06T19:08:30.274Z,18.29
2018-09-06T19:10:58.722Z,18.33
2018-09-06T19:13:30.690Z,18.37
2018-09-06T19:15:59.293Z,18.32
2018-09-06T19:18:27.826Z,18.35
2018-09-06T19:20:56.233Z,18.36
2018-09-06T19:23:24.685Z,18.29
2018-09-06T19:25:53.194Z,18.24
2018-09-06T19:28:21.715Z,18.23
2018-09-06T19:30:50.160Z,18.19
2018-09-06T19:33:19.453Z,18.16
2018-09-06T19:35:48.677Z,18.17
2018-09-06T19:38:17.083Z,18.14
2018-09-06T19:40:45.538Z,18.10
2018-09-06T19:43:15.425Z,18.06
2018-09-06T19:45:44.193Z,18.01
2018-09-06T19:48:13.075Z,17.97
2018-09-06T19:50:41.507Z,17.89
2018-09-06T19:53:10.016Z,17.91
2018-09-06T19:55:39.044Z,17.80
2018-09-06T19:58:07.573Z,17.81
2018-09-06T20:00:36.115Z,17.80
2018-09-06T20:03:04.569Z,17.78
2018-09-06T20:05:34.168Z,17.75
2018-09-06T20:08:02.824Z,17.79
2018-09-06T20:10:31.232Z,17.77
2018-09-06T20:12:59.719Z,17.76
2018-09-06T20:15:28.222Z,17.70
2018-09-06T20:17:57.754Z,17.64
2018-09-06T20:20:26.322Z,17.61
2018-09-06T20:22:54.802Z,17.58
2018-09-06T20:25:25.259Z,17.51
2018-09-06T20:27:53.712Z,17.48
2018-09-06T20:30:22.386Z,17.47
2018-09-06T20:32:50.986Z,17.43
2018-09-06T20:35:19.494Z,17.37
2018-09-06T20:37:48.046Z,17.37
2018-09-06T20:40:16.689Z,17.33
2018-09-06T20:42:45.157Z,17.31
2018-09-06T20:45:13.649Z,17.24
2018-09-06T20:47:50.753Z,17.21
2018-09-06T20:50:24.286Z,17.17
2018-09-06T20:52:52.790Z,17.17
2018-09-06T20:55:35.019Z,17.13
2018-09-06T20:58:03.469Z,17.06
2018-09-06T21:00:32.187Z,17.05
2018-09-06T21:03:00.978Z,17.08
2018-09-06T21:05:29.516Z,17.05
2018-09-06T21:07:58.351Z,16.95
2018-09-06T21:10:26.825Z,16.97
2018-09-06T21:12:55.361Z,16.94
2018-09-06T21:15:23.834Z,16.93
2018-09-06T21:17:52.279Z,16.96
2018-09-06T21:20:20.749Z,16.95
2018-09-06T21:22:49.227Z,16.93
2018-09-06T21:25:17.752Z,16.91
2018-09-06T21:27:47.002Z,16.86
2018-09-06T21:30:15.486Z,16.80
2018-09-06T21:32:43.921Z,16.78
2018-09-06T21:35:12.509Z,16.74
2018-09-06T21:37:41.045Z,16.64
2018-09-06T21:40:09.757Z,16.60
2018-09-06T21:42:38.250Z,16.52
2018-09-06T21:45:06.883Z,16.54
2018-09-06T21:47:35.330Z,16.57
2018-09-06T21:50:03.884Z,16.51
2018-09-06T21:52:32.337Z,16.48
2018-09-06T21:55:00.802Z,16.47
2018-09-06T21:57:29.270Z,16.45
2018-09-06T21:59:57.741Z,16.42
2018-09-06T22:02:31.614Z,16.36
2018-09-06T22:05:00.094Z,16.29
2018-09-06T22:07:28.598Z,16.22
2018-09-06T22:09:57.053Z,16.19
2018-09-06T22:12:25.486Z,16.15
2018-09-06T22:14:53.977Z,16.13
2018-09-06T22:17:22.461Z,16.10
2018-09-06T22:19:50.911Z,16.05
2018-09-06T22:22:19.373Z,16.04
2018-09-06T22:24:47.835Z,16.04
2018-09-06T22:27:16.285Z,16.04
2018-09-06T22:29:44.761Z,16.07
2018-09-06T22:32:13.298Z,16.17
2018-09-06T22:34:41.751Z,16.19
2018-09-06T22:37:10.261Z,16.26
2018-09-06T22:39:38.689Z,16.36
2018-09-06T22:42:07.189Z,16.38
2018-09-06T22:44:35.654Z,16.35
2018-09-06T22:47:04.116Z,16.35
2018-09-06T22:49:32.605Z,16.31
2018-09-06T22:52:01.151Z,16.31
2018-09-06T22:54:29.565Z,16.32
2018-09-06T22:56:58.050Z,16.34
2018-09-06T22:59:26.505Z,16.38
2018-09-06T23:01:54.989Z,16.40
2018-09-06T23:04:23.397Z,16.41
2018-09-06T23:06:51.846Z,16.37
2018-09-06T23:09:20.266Z,16.27
2018-09-06T23:11:48.720Z,16.17
2018-09-06T23:14:17.121Z,16.18
2018-09-06T23:16:45.557Z,16.19
2018-09-06T23:19:14.194Z,16.09
2018-09-06T23:21:42.626Z,15.95
2018-09-06T23:24:11.125Z,15.77
2018-09-06T23:26:39.553Z,15.71
2018-09-06T23:29:08.029Z,15.66
2018-09-06T23:31:36.496Z,15.60
2018-09-06T23:34:04.946Z,15.53
2018-09-06T23:36:33.390Z,15.46
2018-09-06T23:39:01.840Z,15.46
2018-09-06T23:41:30.334Z,15.46
2018-09-06T23:43:58.790Z,15.55
2018-09-06T23:46:27.237Z,15.61
2018-09-06T23:48:55.661Z,15.60
2018-09-06T23:51:24.095Z,15.69
2018-09-06T23:53:52.500Z,15.69
2018-09-06T23:56:20.925Z,15.61
2018-09-06T23:58:49.431Z,15.52
